Time;durP1;ratioP1;P1;durP2;ratioP2;P2;SDS_P1;SDS_P2;PMS_P1;PMS_P2;Temp;Humidity;BMP_temperature;BMP_pressure;BME280_temperature;BME280_humidity;BME280_pressure;Samples;Min_cycle;Max_cycle;Signal;HPM_P1;HPM_P2
2020/12/25 00:00:25;;;;;;;2.53;1.13;;;0.40;99.90;;;;;;5002488;28;20023;-90
2020/12/25 00:02:51;;;;;;;7.40;0.95;;;0.30;99.90;;;;;;5002460;28;20061;-90
2020/12/25 00:05:16;;;;;;;3.83;1.10;;;0.30;99.90;;;;;;4985743;28;20098;-91
2020/12/25 00:07:42;;;;;;;4.03;1.85;;;0.30;99.90;;;;;;5002245;28;20629;-91
2020/12/25 00:10:08;;;;;;;7.00;1.60;;;0.30;99.90;;;;;;5002044;28;20030;-91
2020/12/25 00:12:33;;;;;;;2.40;1.10;;;0.20;99.90;;;;;;4985857;28;20480;-89
2020/12/25 00:14:59;;;;;;;4.50;1.58;;;0.20;99.90;;;;;;5001906;28;20098;-90
2020/12/25 00:17:25;;;;;;;4.13;1.17;;;0.10;99.90;;;;;;5002085;28;20582;-90
2020/12/25 00:19:51;;;;;;;0.90;0.60;;;0.10;99.90;;;;;;5001522;28;20113;-91
2020/12/25 00:22:17;;;;;;;2.95;1.05;;;0.10;99.90;;;;;;4985705;28;20026;-90
2020/12/25 00:24:42;;;;;;;3.17;1.20;;;0.00;99.90;;;;;;5001668;28;20030;-90
2020/12/25 00:27:08;;;;;;;8.98;1.70;;;0.00;99.90;;;;;;5006206;28;20041;-90
2020/12/25 00:29:34;;;;;;;3.60;1.38;;;0.00;99.90;;;;;;4988502;28;20045;-89
2020/12/25 00:32:00;;;;;;;4.70;0.80;;;-0.10;99.90;;;;;;5004704;28;20026;-90
2020/12/25 00:34:25;;;;;;;1.98;0.60;;;-0.10;99.90;;;;;;5021368;28;20041;-90
2020/12/25 00:36:51;;;;;;;3.63;0.75;;;-0.10;99.90;;;;;;5020856;28;20033;-90
2020/12/25 00:39:17;;;;;;;4.07;0.70;;;-0.10;99.90;;;;;;5020542;28;20034;-89
2020/12/25 00:41:51;;;;;;;4.32;0.90;;;-0.10;99.90;;;;;;5004338;28;20129;-89
2020/12/25 00:44:17;;;;;;;1.17;0.70;;;-0.10;99.90;;;;;;5004693;28;20061;-90
2020/12/25 00:46:44;;;;;;;1.48;0.80;;;-0.10;99.90;;;;;;5003092;28;20032;-90
2020/12/25 00:49:13;;;;;;;5.13;1.10;;;-0.20;99.90;;;;;;5004351;28;20026;-90
2020/12/25 00:51:39;;;;;;;3.40;0.80;;;-0.20;99.90;;;;;;5004436;28;20022;-89
2020/12/25 00:54:04;;;;;;;4.78;1.60;;;-0.20;99.90;;;;;;5020890;28;20030;-90
2020/12/25 00:56:30;;;;;;;2.25;0.85;;;-0.10;99.90;;;;;;5004523;28;20022;-90
2020/12/25 00:58:56;;;;;;;2.20;0.85;;;-0.20;99.90;;;;;;5020579;28;20033;-92
2020/12/25 01:01:21;;;;;;;1.80;0.60;;;-0.20;99.90;;;;;;5020700;28;20057;-90
2020/12/25 01:03:47;;;;;;;3.05;0.80;;;-0.20;99.90;;;;;;5004358;28;20041;-90
2020/12/25 01:06:18;;;;;;;2.75;0.85;;;-0.20;99.90;;;;;;5020610;28;20034;-90
2020/12/25 01:08:48;;;;;;;6.78;1.15;;;-0.20;99.90;;;;;;5004154;28;20057;-89
2020/12/25 01:11:14;;;;;;;2.08;0.80;;;-0.10;99.90;;;;;;5004189;28;20097;-90
2020/12/25 01:13:41;;;;;;;4.03;0.65;;;-0.20;99.90;;;;;;5019995;28;20053;-90
2020/12/25 01:16:09;;;;;;;4.13;1.08;;;-0.20;99.90;;;;;;5003487;28;20018;-91
2020/12/25 01:18:36;;;;;;;2.15;0.80;;;-0.20;99.90;;;;;;5003633;28;20042;-90
2020/12/25 01:21:02;;;;;;;7.10;1.30;;;-0.20;99.90;;;;;;5003850;28;20030;-91
2020/12/25 01:23:28;;;;;;;8.07;1.88;;;-0.20;99.90;;;;;;5003742;28;20034;-90
2020/12/25 01:25:54;;;;;;;6.43;1.75;;;-0.30;99.90;;;;;;5020169;28;20045;-90
2020/12/25 01:28:20;;;;;;;5.78;1.30;;;-0.30;99.90;;;;;;5020459;28;20053;-91
2020/12/25 01:30:45;;;;;;;3.13;1.02;;;-0.30;99.90;;;;;;5004865;28;20030;-90
2020/12/25 01:33:11;;;;;;;3.10;0.85;;;-0.30;99.90;;;;;;5024028;28;20053;-89
2020/12/25 01:35:37;;;;;;;3.65;0.93;;;-0.30;99.90;;;;;;5034222;28;20064;-90
2020/12/25 01:38:03;;;;;;;3.30;1.05;;;-0.30;99.90;;;;;;5034500;28;20046;-90
2020/12/25 01:40:29;;;;;;;2.53;0.82;;;-0.30;99.90;;;;;;5019861;28;20025;-90
2020/12/25 01:42:55;;;;;;;3.63;0.80;;;-0.30;99.90;;;;;;5019631;28;20038;-90
2020/12/25 01:45:21;;;;;;;3.40;0.95;;;-0.30;99.90;;;;;;5009398;28;20395;-90
2020/12/25 01:47:47;;;;;;;2.75;0.90;;;-0.30;99.90;;;;;;5006758;28;20033;-90
2020/12/25 01:50:14;;;;;;;2.28;0.82;;;-0.30;99.90;;;;;;5005954;28;20030;-90
2020/12/25 01:52:41;;;;;;;5.68;0.90;;;-0.30;99.90;;;;;;5004656;28;20029;-88
2020/12/25 01:55:09;;;;;;;6.25;1.20;;;-0.30;99.90;;;;;;5004364;28;20026;-90
2020/12/25 01:57:35;;;;;;;6.60;2.80;;;-0.30;99.90;;;;;;5004120;28;20038;-90
2020/12/25 02:00:04;;;;;;;4.40;1.55;;;-0.30;99.90;;;;;;5004092;28;20036;-91
2020/12/25 02:02:31;;;;;;;7.70;1.52;;;-0.30;99.90;;;;;;5004070;28;20029;-89
2020/12/25 02:04:57;;;;;;;5.03;1.30;;;-0.40;99.90;;;;;;5003757;28;20176;-91
2020/12/25 02:07:23;;;;;;;5.72;1.40;;;-0.40;99.90;;;;;;5003635;28;20029;-90
2020/12/25 02:09:49;;;;;;;7.45;3.42;;;-0.50;99.90;;;;;;5020645;28;20045;-89
2020/12/25 02:12:15;;;;;;;6.45;1.23;;;-0.50;99.90;;;;;;5003704;28;20034;-90
2020/12/25 02:14:40;;;;;;;3.78;0.90;;;-0.50;99.90;;;;;;5004003;28;20032;-91
2020/12/25 02:17:06;;;;;;;6.25;0.88;;;-0.50;99.90;;;;;;5003608;28;20053;-89
2020/12/25 02:19:36;;;;;;;6.75;1.30;;;-0.60;99.90;;;;;;5020122;28;20038;-90
2020/12/25 02:22:02;;;;;;;2.50;0.88;;;-0.60;99.90;;;;;;5003408;28;20033;-89
2020/12/25 02:24:28;;;;;;;1.73;0.65;;;-0.60;99.90;;;;;;5003291;28;20105;-90
2020/12/25 02:26:54;;;;;;;6.80;0.93;;;-0.60;99.90;;;;;;5016731;28;20052;-91
2020/12/25 02:29:19;;;;;;;2.33;0.90;;;-0.60;99.90;;;;;;5000014;28;20042;-90
2020/12/25 02:31:45;;;;;;;4.95;0.88;;;-0.70;99.90;;;;;;5000197;28;20104;-90
2020/12/25 02:34:10;;;;;;;3.63;0.88;;;-0.70;99.90;;;;;;4983928;28;20052;-91
2020/12/25 02:36:36;;;;;;;3.72;0.90;;;-0.70;99.90;;;;;;4999582;28;20080;-89
2020/12/25 02:39:04;;;;;;;3.53;0.70;;;-0.70;99.90;;;;;;4999663;28;20030;-91
2020/12/25 02:41:30;;;;;;;4.25;1.27;;;-0.70;99.90;;;;;;4983290;28;20030;-90
2020/12/25 02:43:55;;;;;;;3.60;0.70;;;-0.70;99.90;;;;;;4999501;28;20476;-91
2020/12/25 02:46:21;;;;;;;3.22;0.80;;;-0.70;99.90;;;;;;4999646;28;20046;-91
2020/12/25 02:48:47;;;;;;;1.70;0.75;;;-0.70;99.90;;;;;;5000239;28;20029;-91
2020/12/25 02:51:17;;;;;;;1.52;0.60;;;-0.70;99.90;;;;;;4983549;28;20030;-91
2020/12/25 02:53:43;;;;;;;1.95;0.85;;;-0.70;99.90;;;;;;4983563;28;20022;-91
2020/12/25 02:56:12;;;;;;;2.35;0.60;;;-0.70;99.90;;;;;;4982983;28;20088;-91
2020/12/25 02:58:37;;;;;;;2.30;0.35;;;-0.70;99.90;;;;;;4983453;28;20039;-91
2020/12/25 03:01:03;;;;;;;3.95;0.68;;;-0.60;99.90;;;;;;4999112;28;20033;-90
2020/12/25 03:03:28;;;;;;;2.17;0.68;;;-0.60;99.90;;;;;;4998469;28;20026;-91
2020/12/25 03:05:54;;;;;;;2.15;0.60;;;-0.60;99.90;;;;;;4982279;28;20035;-90
2020/12/25 03:08:20;;;;;;;2.10;0.85;;;-0.60;99.90;;;;;;4998987;28;20034;-90
2020/12/25 03:10:45;;;;;;;5.05;0.50;;;-0.60;99.90;;;;;;5002758;28;20034;-89
2020/12/25 03:13:11;;;;;;;8.40;1.90;;;-0.60;99.90;;;;;;5003301;28;20085;-91
2020/12/25 03:15:37;;;;;;;1.88;0.60;;;-0.60;99.90;;;;;;5003696;28;20054;-89
2020/12/25 03:18:02;;;;;;;5.25;0.70;;;-0.60;99.90;;;;;;5002922;28;20049;-91
2020/12/25 03:20:28;;;;;;;5.07;0.70;;;-0.60;99.90;;;;;;5002927;28;20034;-90
2020/12/25 03:22:53;;;;;;;4.32;0.80;;;-0.60;99.90;;;;;;4986788;28;20041;-90
2020/12/25 03:25:19;;;;;;;2.47;0.63;;;-0.60;99.90;;;;;;5002799;28;20029;-90
2020/12/25 03:27:45;;;;;;;0.50;0.50;;;-0.50;99.90;;;;;;5003564;28;20077;-90
2020/12/25 03:30:10;;;;;;;1.17;0.50;;;-0.60;99.90;;;;;;5002928;28;20498;-90
2020/12/25 03:32:36;;;;;;;4.25;1.25;;;-0.50;99.90;;;;;;5003157;28;20120;-90
2020/12/25 03:35:03;;;;;;;1.13;0.55;;;-0.50;99.90;;;;;;4986521;28;20040;-90
2020/12/25 03:37:28;;;;;;;2.00;0.50;;;-0.50;99.90;;;;;;4986512;28;20030;-90
2020/12/25 03:39:54;;;;;;;1.60;0.60;;;-0.50;99.90;;;;;;5002757;28;20038;-90
2020/12/25 03:42:20;;;;;;;2.53;1.08;;;-0.50;99.90;;;;;;4986373;28;20381;-89
2020/12/25 03:44:45;;;;;;;1.13;0.80;;;-0.50;99.90;;;;;;5002747;28;20058;-90
2020/12/25 03:47:11;;;;;;;7.45;1.63;;;-0.60;99.90;;;;;;5002584;28;20061;-90
2020/12/25 03:49:37;;;;;;;4.60;0.60;;;-0.60;99.90;;;;;;5002497;28;20068;-90
2020/12/25 03:52:02;;;;;;;2.67;0.93;;;-0.70;99.90;;;;;;5002347;28;20027;-90
2020/12/25 03:54:28;;;;;;;4.40;0.60;;;-0.70;99.90;;;;;;5003237;28;20038;-90
2020/12/25 03:56:54;;;;;;;2.55;0.52;;;-0.70;99.90;;;;;;5002497;28;20042;-90
2020/12/25 03:59:19;;;;;;;6.55;0.82;;;-0.80;99.90;;;;;;4986090;28;20034;-90
2020/12/25 04:01:45;;;;;;;3.03;0.50;;;-0.80;99.90;;;;;;5002556;28;20027;-90
2020/12/25 04:04:11;;;;;;;2.80;0.73;;;-0.80;99.90;;;;;;5002493;28;20102;-91
2020/12/25 04:06:38;;;;;;;2.15;0.73;;;-0.90;99.90;;;;;;5002396;28;20758;-90
2020/12/25 04:09:03;;;;;;;4.72;0.80;;;-0.90;99.90;;;;;;5002095;28;20069;-90
2020/12/25 04:11:29;;;;;;;3.80;0.60;;;-0.90;99.90;;;;;;5002004;28;20031;-91
2020/12/25 04:13:55;;;;;;;4.53;0.73;;;-0.90;99.90;;;;;;5002428;28;20035;-90
2020/12/25 04:16:21;;;;;;;2.60;0.70;;;-0.90;99.90;;;;;;4985780;28;20018;-90
2020/12/25 04:18:46;;;;;;;3.05;0.70;;;-1.00;99.90;;;;;;5001798;28;20057;-90
2020/12/25 04:21:12;;;;;;;3.38;0.85;;;-1.00;99.90;;;;;;5001697;28;20018;-90
2020/12/25 04:23:38;;;;;;;3.35;0.80;;;-1.00;99.90;;;;;;5001911;28;20028;-90
2020/12/25 04:26:03;;;;;;;1.58;0.60;;;-1.00;99.90;;;;;;5001824;28;20034;-90
2020/12/25 04:28:29;;;;;;;3.47;0.80;;;-1.00;99.90;;;;;;5016593;28;20049;-90
2020/12/25 04:30:54;;;;;;;2.92;0.60;;;-1.10;99.90;;;;;;5021803;28;20079;-89
2020/12/25 04:33:20;;;;;;;1.83;0.85;;;-1.10;99.90;;;;;;5005491;28;20095;-90
2020/12/25 04:35:46;;;;;;;5.60;0.80;;;-1.20;99.90;;;;;;5021273;28;20026;-90
2020/12/25 04:38:12;;;;;;;2.28;0.70;;;-1.10;99.90;;;;;;5021021;28;20038;-89
2020/12/25 04:40:37;;;;;;;2.90;1.00;;;-1.20;99.90;;;;;;5020552;28;20018;-90
2020/12/25 04:43:03;;;;;;;1.88;0.70;;;-1.20;99.90;;;;;;5020951;28;20105;-91
2020/12/25 04:45:29;;;;;;;3.50;0.82;;;-1.20;99.90;;;;;;5004838;28;20456;-89
2020/12/25 04:47:55;;;;;;;4.70;1.00;;;-1.20;99.90;;;;;;5021112;28;20680;-91
2020/12/25 04:50:22;;;;;;;5.55;0.75;;;-1.20;99.90;;;;;;5004582;28;20029;-90
2020/12/25 04:52:49;;;;;;;4.03;0.95;;;-1.20;99.90;;;;;;5004712;28;20030;-91
2020/12/25 04:55:15;;;;;;;6.10;1.13;;;-1.30;99.90;;;;;;5021137;28;20069;-91
2020/12/25 04:57:40;;;;;;;4.95;0.85;;;-1.30;99.90;;;;;;5021207;28;20046;-90
2020/12/25 05:00:17;;;;;;;1.40;0.60;;;-1.30;99.90;;;;;;5020039;28;20029;-89
2020/12/25 05:02:45;;;;;;;4.15;0.80;;;-1.40;99.90;;;;;;5004846;28;20034;-90
2020/12/25 05:05:11;;;;;;;2.92;0.98;;;-1.40;99.90;;;;;;5006625;28;20026;-89
2020/12/25 05:07:37;;;;;;;2.42;0.57;;;-1.40;99.90;;;;;;5006908;28;20068;-91
2020/12/25 05:10:07;;;;;;;5.32;1.10;;;-1.40;99.90;;;;;;5028438;28;20451;-90
2020/12/25 05:12:33;;;;;;;2.65;0.88;;;-1.40;99.90;;;;;;5007167;28;20033;-91
2020/12/25 05:15:03;;;;;;;2.70;0.90;;;-1.40;99.90;;;;;;5006619;28;20033;-91
2020/12/25 05:17:31;;;;;;;4.78;1.20;;;-1.40;99.90;;;;;;5005973;28;20045;-90
2020/12/25 05:19:57;;;;;;;2.33;1.00;;;-1.40;99.90;;;;;;5005599;28;20535;-90
2020/12/25 05:22:23;;;;;;;6.13;1.05;;;-1.40;99.90;;;;;;5005123;28;20065;-89
2020/12/25 05:24:48;;;;;;;3.38;1.00;;;-1.40;99.90;;;;;;5004934;28;20024;-90
2020/12/25 05:27:14;;;;;;;10.05;1.63;;;-1.40;99.90;;;;;;5004671;28;20033;-90
2020/12/25 05:29:40;;;;;;;2.90;1.00;;;-1.40;99.90;;;;;;5004670;28;20034;-90
2020/12/25 05:32:06;;;;;;;2.03;0.85;;;-1.40;99.90;;;;;;5003534;28;20022;-90
2020/12/25 05:34:34;;;;;;;2.60;1.17;;;-1.40;99.90;;;;;;5004405;28;20041;-89
2020/12/25 05:37:04;;;;;;;2.47;0.98;;;-1.40;99.90;;;;;;5020740;28;20026;-89
2020/12/25 05:39:39;;;;;;;3.67;1.23;;;-1.40;99.90;;;;;;5004588;28;20041;-90
2020/12/25 05:42:07;;;;;;;2.67;0.85;;;-1.30;99.90;;;;;;5004089;28;20030;-91
2020/12/25 05:44:48;;;;;;;3.03;1.02;;;-1.40;99.90;;;;;;5021083;28;20034;-90
2020/12/25 05:47:15;;;;;;;2.45;0.90;;;-1.40;99.90;;;;;;5004146;28;20495;-91
2020/12/25 05:49:41;;;;;;;4.10;1.08;;;-1.40;99.90;;;;;;5004100;28;20030;-91
2020/12/25 05:52:06;;;;;;;2.83;0.85;;;-1.40;99.90;;;;;;5004204;28;20045;-90
2020/12/25 05:54:33;;;;;;;2.17;0.90;;;-1.40;99.90;;;;;;5003689;28;20471;-91
2020/12/25 05:56:59;;;;;;;5.82;1.00;;;-1.40;99.90;;;;;;5003500;28;20133;-91
2020/12/25 05:59:26;;;;;;;3.40;0.95;;;-1.40;99.90;;;;;;5003908;28;20053;-91
2020/12/25 06:02:00;;;;;;;6.18;1.25;;;-1.40;99.90;;;;;;5003551;28;20060;-90
2020/12/25 06:04:27;;;;;;;6.65;1.00;;;-1.40;99.90;;;;;;5003339;28;20026;-90
2020/12/25 06:06:54;;;;;;;8.30;1.63;;;-1.40;99.90;;;;;;5003117;28;20033;-89
2020/12/25 06:09:29;;;;;;;3.60;0.95;;;-1.40;99.90;;;;;;5004230;28;20030;-92
2020/12/25 06:11:55;;;;;;;4.22;0.88;;;-1.40;99.90;;;;;;5002574;28;20037;-90
2020/12/25 06:14:21;;;;;;;2.88;1.10;;;-1.40;99.90;;;;;;5019469;28;20026;-90
2020/12/25 06:17:17;;;;;;;5.75;1.55;;;-1.30;99.90;;;;;;5016727;28;20029;-90
2020/12/25 06:20:03;;;;;;;5.28;1.40;;;-1.30;99.90;;;;;;5014448;28;20045;-91
2020/12/25 06:22:35;;;;;;;6.45;1.20;;;-1.30;99.90;;;;;;5019198;28;20483;-91
2020/12/25 06:25:02;;;;;;;2.42;1.02;;;-1.40;99.90;;;;;;5018766;28;20045;-90
2020/12/25 06:27:28;;;;;;;5.20;1.35;;;-1.30;99.90;;;;;;5011565;28;20050;-90
2020/12/25 06:29:55;;;;;;;5.25;1.20;;;-1.30;99.90;;;;;;4994328;28;20507;-91
2020/12/25 06:32:23;;;;;;;4.68;1.35;;;-1.30;99.90;;;;;;4993637;28;20022;-90
2020/12/25 06:35:01;;;;;;;4.60;1.50;;;-1.30;99.90;;;;;;4999603;28;20037;-92
2020/12/25 06:37:28;;;;;;;5.75;1.75;;;-1.30;99.90;;;;;;4999285;28;20022;-91
2020/12/25 06:39:57;;;;;;;7.07;1.70;;;-1.30;99.90;;;;;;4999189;28;20076;-91
2020/12/25 06:42:34;;;;;;;4.53;1.60;;;-1.40;99.90;;;;;;4999861;28;20053;-91
2020/12/25 06:45:11;;;;;;;4.47;1.20;;;-1.40;99.90;;;;;;4999454;28;20030;-91
2020/12/25 06:47:40;;;;;;;7.95;1.20;;;-1.40;99.90;;;;;;4999430;28;20022;-91
2020/12/25 06:50:15;;;;;;;3.13;1.20;;;-1.40;99.90;;;;;;4999359;28;20045;-92
2020/12/25 06:53:00;;;;;;;1.92;1.08;;;-1.30;99.90;;;;;;4999390;28;20170;-91
2020/12/25 06:55:44;;;;;;;3.85;1.35;;;-1.30;99.90;;;;;;4999395;28;20030;-91
2020/12/25 06:58:18;;;;;;;3.70;1.17;;;-1.30;99.90;;;;;;4999119;28;20084;-91
2020/12/25 07:00:44;;;;;;;2.50;1.30;;;-1.30;99.90;;;;;;4970852;28;20026;-92
2020/12/25 07:03:14;;;;;;;6.57;1.20;;;-1.30;99.90;;;;;;4983175;28;20088;-91
2020/12/25 07:05:50;;;;;;;11.20;1.33;;;-1.30;99.90;;;;;;5000019;28;20027;-91
2020/12/25 07:08:28;;;;;;;5.20;1.38;;;-1.40;99.90;;;;;;5003620;28;20034;-91
2020/12/25 07:11:08;;;;;;;3.47;1.15;;;-1.30;99.90;;;;;;4988604;28;20503;-90
2020/12/25 07:13:36;;;;;;;3.70;1.13;;;-1.30;99.90;;;;;;4998784;28;20130;-92
2020/12/25 07:16:03;;;;;;;6.50;1.40;;;-1.30;99.90;;;;;;4999431;28;20026;-91
2020/12/25 07:18:30;;;;;;;3.92;1.23;;;-1.40;99.90;;;;;;4999503;28;20038;-91
2020/12/25 07:21:17;;;;;;;3.80;1.25;;;-1.40;99.90;;;;;;4996665;28;20030;-93
2020/12/25 07:23:45;;;;;;;4.78;1.00;;;-1.40;99.90;;;;;;4963427;28;20027;-91
2020/12/25 07:26:11;;;;;;;6.47;1.35;;;-1.40;99.90;;;;;;4984275;28;20056;-92
2020/12/25 07:28:37;;;;;;;4.30;1.17;;;-1.40;99.90;;;;;;4995933;28;20066;-91
2020/12/25 07:31:03;;;;;;;6.18;1.40;;;-1.40;99.90;;;;;;4996472;28;20125;-91
2020/12/25 07:33:29;;;;;;;3.30;1.25;;;-1.40;99.90;;;;;;4972790;28;20452;-90
2020/12/25 07:35:55;;;;;;;4.82;1.20;;;-1.40;99.90;;;;;;4963805;28;20038;-91
2020/12/25 07:38:21;;;;;;;3.25;1.00;;;-1.40;99.90;;;;;;4979285;28;20039;-91
2020/12/25 07:40:47;;;;;;;2.42;1.20;;;-1.40;99.90;;;;;;4968649;28;20028;-90
2020/12/25 07:43:13;;;;;;;3.50;1.17;;;-1.40;99.90;;;;;;4979309;28;20034;-89
2020/12/25 07:45:40;;;;;;;2.97;1.10;;;-1.40;99.90;;;;;;4963408;28;20034;-94
2020/12/25 07:48:07;;;;;;;6.32;1.13;;;-1.40;99.90;;;;;;4965229;28;20027;-92
2020/12/25 07:50:44;;;;;;;2.15;0.77;;;-1.40;99.90;;;;;;4966574;28;20087;-92
2020/12/25 07:53:12;;;;;;;6.18;1.00;;;-1.40;99.90;;;;;;4961324;28;20564;-93
2020/12/25 07:55:39;;;;;;;5.25;1.00;;;-1.30;99.90;;;;;;4978063;28;20027;-92
2020/12/25 07:58:07;;;;;;;3.55;1.27;;;-1.30;99.90;;;;;;4963621;28;20031;-91
2020/12/25 08:00:33;;;;;;;1.13;0.70;;;-1.20;99.90;;;;;;4979905;28;20555;-92
2020/12/25 08:02:59;;;;;;;3.67;1.15;;;-1.20;99.90;;;;;;4963819;28;20023;-92
2020/12/25 08:05:30;;;;;;;2.67;1.30;;;-1.20;99.90;;;;;;4964501;28;20092;-93
2020/12/25 08:08:04;;;;;;;2.30;1.08;;;-1.20;99.90;;;;;;4965071;28;20094;-92
2020/12/25 08:10:32;;;;;;;5.85;1.50;;;-1.20;99.90;;;;;;4965665;28;20023;-92
2020/12/25 08:12:59;;;;;;;8.23;2.47;;;-1.20;99.90;;;;;;4965500;28;20035;-92
2020/12/25 08:15:26;;;;;;;5.05;1.52;;;-1.20;99.90;;;;;;4964866;28;20027;-91
2020/12/25 08:17:59;;;;;;;4.88;1.40;;;-1.20;99.90;;;;;;4964882;28;20043;-91
2020/12/25 08:20:25;;;;;;;1.42;1.20;;;-1.10;99.90;;;;;;4983933;28;20022;-91
2020/12/25 08:23:00;;;;;;;4.18;1.33;;;-1.20;99.90;;;;;;4998752;28;20038;-92
2020/12/25 08:25:32;;;;;;;5.28;1.85;;;-1.10;99.90;;;;;;4982491;28;20056;-91
2020/12/25 08:27:58;;;;;;;4.93;1.00;;;-1.10;99.90;;;;;;5002984;28;20045;-93
2020/12/25 08:30:25;;;;;;;1.98;0.77;;;-1.10;99.90;;;;;;4991785;28;20503;-91
2020/12/25 08:32:59;;;;;;;3.03;1.08;;;-1.00;99.90;;;;;;5000918;28;20038;-93
2020/12/25 08:35:27;;;;;;;4.35;1.27;;;-1.00;99.90;;;;;;5022662;28;20034;-91
2020/12/25 08:38:03;;;;;;;3.60;1.15;;;-0.90;99.90;;;;;;5032681;28;20030;-92
2020/12/25 08:40:34;;;;;;;2.05;1.15;;;-0.90;99.90;;;;;;5033268;28;20026;-91
2020/12/25 08:43:09;;;;;;;4.95;1.13;;;-0.90;99.90;;;;;;5034817;28;20031;-93
2020/12/25 08:45:35;;;;;;;3.08;1.02;;;-0.90;99.90;;;;;;5030351;28;20062;-92
2020/12/25 08:48:06;;;;;;;2.78;0.70;;;-0.90;99.90;;;;;;5022172;28;20030;-91
2020/12/25 08:50:32;;;;;;;;;;;-0.90;99.90;;;;;;5015641;28;20026;-93
2020/12/25 08:53:17;;;;;;;5.95;1.90;;;-0.90;99.90;;;;;;5002676;28;19916;-91
2020/12/25 08:55:44;;;;;;;5.68;2.08;;;-0.90;99.90;;;;;;5013458;28;20026;-91
2020/12/25 08:58:09;;;;;;;8.00;2.80;;;-0.90;99.90;;;;;;4998903;28;20133;-93
2020/12/25 09:00:35;;;;;;;5.35;2.05;;;-0.90;99.90;;;;;;5015379;28;20053;-93
2020/12/25 09:03:01;;;;;;;9.38;2.72;;;-0.90;99.90;;;;;;4999258;28;20045;-92
2020/12/25 09:05:26;;;;;;;11.18;3.30;;;-0.80;99.90;;;;;;4999068;28;20033;-92
2020/12/25 09:07:52;;;;;;;11.85;3.20;;;-0.80;99.90;;;;;;5009278;28;20029;-91
2020/12/25 09:10:18;;;;;;;6.45;2.00;;;-0.80;99.90;;;;;;5012890;28;20036;-93
2020/12/25 09:12:43;;;;;;;9.45;3.05;;;-0.70;99.90;;;;;;4999295;28;20080;-93
2020/12/25 09:15:09;;;;;;;8.05;2.15;;;-0.70;99.90;;;;;;5013147;28;20030;-91
2020/12/25 09:17:35;;;;;;;6.55;2.05;;;-0.60;99.90;;;;;;4991000;28;20038;-92
2020/12/25 09:20:00;;;;;;;3.10;1.30;;;-0.60;99.90;;;;;;5011282;28;20022;-93
2020/12/25 09:22:26;;;;;;;9.88;1.95;;;-0.60;99.90;;;;;;4997998;28;20029;-91
2020/12/25 09:24:52;;;;;;;6.82;1.60;;;-0.50;99.90;;;;;;5011678;28;20084;-90
2020/12/25 09:27:17;;;;;;;5.15;0.90;;;-0.50;99.90;;;;;;5019302;28;20510;-92
2020/12/25 09:29:43;;;;;;;4.32;1.20;;;-0.40;99.90;;;;;;5002258;28;20124;-92
2020/12/25 09:32:08;;;;;;;5.25;1.10;;;-0.40;99.90;;;;;;4999790;28;20026;-92
2020/12/25 09:34:34;;;;;;;7.40;1.38;;;-0.30;99.90;;;;;;5014298;28;20057;-93
2020/12/25 09:37:00;;;;;;;3.90;1.23;;;-0.30;99.90;;;;;;4998038;28;20479;-92
2020/12/25 09:39:25;;;;;;;3.72;0.95;;;-0.20;99.90;;;;;;4997850;28;20042;-89
2020/12/25 09:41:51;;;;;;;4.75;0.90;;;-0.10;99.90;;;;;;5023867;28;20029;-92
2020/12/25 09:44:17;;;;;;;4.32;1.00;;;0.00;99.90;;;;;;5023775;28;20109;-91
2020/12/25 09:46:42;;;;;;;6.13;0.75;;;0.10;99.90;;;;;;5013642;28;20032;-92
2020/12/25 09:49:08;;;;;;;1.83;0.80;;;0.10;99.90;;;;;;5013909;28;20022;-93
2020/12/25 09:51:34;;;;;;;2.85;0.60;;;0.20;99.90;;;;;;5010267;28;20023;-91
2020/12/25 09:54:00;;;;;;;0.80;0.65;;;0.30;99.90;;;;;;5024196;28;20041;-90
2020/12/25 09:56:25;;;;;;;2.70;0.95;;;0.40;99.90;;;;;;5013363;28;20112;-89
2020/12/25 09:58:51;;;;;;;1.55;0.70;;;0.50;99.90;;;;;;5026462;28;20072;-90
2020/12/25 10:01:19;;;;;;;3.22;0.95;;;0.60;99.90;;;;;;5001206;28;20033;-91
2020/12/25 10:03:44;;;;;;;2.05;0.70;;;0.70;99.90;;;;;;5002289;28;20057;-91
2020/12/25 10:06:10;;;;;;;2.75;1.00;;;0.80;99.90;;;;;;5015974;28;20037;-91
2020/12/25 10:08:36;;;;;;;2.63;0.85;;;1.00;99.90;;;;;;5021970;28;20034;-91
2020/12/25 10:11:01;;;;;;;2.38;0.90;;;1.20;99.90;;;;;;5013620;28;20045;-92
2020/12/25 10:13:27;;;;;;;3.85;1.00;;;1.40;99.90;;;;;;5015060;28;20029;-90
2020/12/25 10:15:53;;;;;;;6.53;2.97;;;1.60;99.90;;;;;;5015393;28;20090;-91
2020/12/25 10:18:19;;;;;;;3.70;1.30;;;1.80;99.90;;;;;;5022487;28;20033;-90
2020/12/25 10:20:45;;;;;;;6.70;2.58;;;2.00;99.90;;;;;;5023081;28;20479;-90
2020/12/25 10:23:10;;;;;;;7.50;3.25;;;2.20;99.90;;;;;;5020161;28;20049;-92
2020/12/25 10:25:36;;;;;;;4.20;2.22;;;2.40;99.90;;;;;;5006692;28;20030;-91
2020/12/25 10:28:02;;;;;;;3.20;2.05;;;2.60;99.90;;;;;;5003237;28;20058;-91
2020/12/25 10:30:27;;;;;;;5.72;2.38;;;2.70;99.90;;;;;;5015705;28;20024;-90
2020/12/25 10:32:53;;;;;;;4.82;2.70;;;2.90;99.90;;;;;;5019454;28;20069;-90
2020/12/25 10:35:19;;;;;;;5.43;2.20;;;3.00;99.90;;;;;;5018954;28;20028;-90
2020/12/25 10:37:47;;;;;;;5.10;2.47;;;3.10;99.90;;;;;;5001405;28;20034;-91
2020/12/25 10:40:12;;;;;;;2.13;0.90;;;3.20;99.90;;;;;;5014612;28;20487;-91
2020/12/25 10:42:40;;;;;;;3.40;1.08;;;3.40;99.90;;;;;;5006624;28;20104;-91
2020/12/25 10:45:05;;;;;;;2.00;1.20;;;3.40;99.90;;;;;;5012133;28;20080;-91
2020/12/25 10:47:31;;;;;;;3.38;1.05;;;3.50;99.90;;;;;;5011959;28;20022;-91
2020/12/25 10:49:57;;;;;;;3.45;1.48;;;3.60;99.90;;;;;;4996467;28;20025;-91
2020/12/25 10:52:22;;;;;;;5.35;1.05;;;3.60;99.90;;;;;;5012051;28;20080;-91
2020/12/25 10:54:48;;;;;;;6.50;1.83;;;3.80;99.90;;;;;;5012620;28;20475;-91
2020/12/25 10:57:13;;;;;;;1.90;1.02;;;3.90;99.90;;;;;;4999982;28;20041;-91
2020/12/25 10:59:39;;;;;;;5.28;1.50;;;4.10;99.90;;;;;;5032229;28;20026;-92
2020/12/25 11:02:05;;;;;;;4.55;1.38;;;4.30;99.90;;;;;;5019711;28;20029;-93
2020/12/25 11:04:32;;;;;;;8.35;2.13;;;4.50;99.90;;;;;;5010381;28;20032;-93
2020/12/25 11:06:58;;;;;;;3.25;1.80;;;4.80;99.90;;;;;;5013177;28;20045;-91
2020/12/25 11:09:23;;;;;;;3.97;1.67;;;5.10;99.90;;;;;;4995641;28;20153;-93
2020/12/25 11:11:49;;;;;;;3.03;1.27;;;5.30;99.90;;;;;;4996610;28;20022;-93
2020/12/25 11:14:15;;;;;;;4.00;2.20;;;5.60;99.30;;;;;;5012563;28;20026;-94
2020/12/25 11:16:40;;;;;;;5.20;1.90;;;5.80;98.20;;;;;;5010879;28;20014;-94
2020/12/25 11:19:08;;;;;;;5.88;1.52;;;6.20;97.50;;;;;;5012737;28;20116;-93
2020/12/25 11:21:34;;;;;;;5.38;1.75;;;6.50;96.30;;;;;;5010740;28;20026;-95
2020/12/25 11:24:02;;;;;;;7.50;2.63;;;6.80;94.90;;;;;;5009844;28;20023;-94
2020/12/25 11:26:33;;;;;;;6.93;3.53;;;7.10;93.80;;;;;;4999657;28;20143;-92
2020/12/25 11:29:01;;;;;;;9.40;2.40;;;7.40;92.90;;;;;;5025939;28;20499;-92
2020/12/25 11:31:28;;;;;;;2.92;1.50;;;7.80;91.90;;;;;;5017095;28;20026;-93
2020/12/25 11:33:54;;;;;;;9.32;2.50;;;8.00;90.90;;;;;;5021971;28;20026;-93
2020/12/25 11:36:32;;;;;;;7.82;3.63;;;8.30;90.00;;;;;;4996964;28;20124;-92
2020/12/25 11:38:58;;;;;;;5.65;1.92;;;8.50;88.40;;;;;;5000767;28;20030;-93
2020/12/25 11:41:28;;;;;;;2.03;1.05;;;8.70;86.80;;;;;;4999663;28;20029;-94
2020/12/25 11:43:55;;;;;;;4.45;1.55;;;8.90;85.20;;;;;;5015969;28;20037;-93
2020/12/25 11:46:25;;;;;;;4.63;2.20;;;9.10;83.70;;;;;;5018632;28;20060;-93
2020/12/25 11:48:52;;;;;;;9.50;3.00;;;9.40;82.30;;;;;;5015528;28;20086;-93
2020/12/25 11:51:25;;;;;;;3.88;1.20;;;9.50;81.10;;;;;;4999290;28;20490;-93
2020/12/25 11:53:51;;;;;;;1.35;0.80;;;9.80;79.70;;;;;;5015143;28;20041;-93
2020/12/25 11:56:31;;;;;;;1.55;0.75;;;9.90;78.00;;;;;;4999575;28;20030;-93
2020/12/25 11:58:58;;;;;;;2.50;1.20;;;10.10;77.10;;;;;;5005287;28;20057;-95
2020/12/25 12:01:24;;;;;;;2.25;1.13;;;10.50;76.60;;;;;;4999488;28;20104;-91
2020/12/25 12:03:50;;;;;;;1.75;1.25;;;10.80;75.50;;;;;;5016612;28;20073;-94
2020/12/25 12:06:22;;;;;;;3.63;1.60;;;11.00;73.60;;;;;;5002868;28;20026;-93
2020/12/25 12:08:48;;;;;;;7.13;2.08;;;11.30;73.00;;;;;;5022407;28;20022;-93
2020/12/25 12:11:14;;;;;;;7.63;2.75;;;11.60;71.80;;;;;;5028616;28;20026;-93
2020/12/25 12:13:40;;;;;;;3.88;1.50;;;11.30;69.40;;;;;;5032091;28;20034;-92
2020/12/25 12:16:15;;;;;;;5.40;1.65;;;11.10;70.10;;;;;;5019579;28;20034;-93
2020/12/25 12:18:41;;;;;;;5.00;1.52;;;11.20;70.70;;;;;;5032350;28;20041;-92
2020/12/25 12:21:10;;;;;;;3.60;1.08;;;11.40;70.20;;;;;;5024480;28;20112;-92
2020/12/25 12:23:37;;;;;;;7.85;2.15;;;11.70;69.80;;;;;;5019587;28;20124;-92
2020/12/25 12:26:03;;;;;;;4.68;1.90;;;12.10;68.80;;;;;;5016454;28;20022;-92
2020/12/25 12:28:29;;;;;;;6.72;2.45;;;12.20;67.40;;;;;;4980359;28;20062;-92
2020/12/25 12:30:55;;;;;;;6.20;2.40;;;12.40;67.10;;;;;;4981957;28;20022;-91
2020/12/25 12:33:21;;;;;;;6.28;2.50;;;12.50;65.90;;;;;;4982138;28;20142;-91
2020/12/25 12:35:49;;;;;;;8.40;2.33;;;12.40;64.90;;;;;;4981304;28;20066;-91
2020/12/25 12:38:15;;;;;;;3.35;1.75;;;12.50;65.40;;;;;;4997377;28;20034;-91
2020/12/25 12:40:41;;;;;;;5.85;1.60;;;12.70;64.90;;;;;;4980414;28;20034;-92
2020/12/25 12:43:07;;;;;;;2.50;1.08;;;13.00;64.50;;;;;;4985510;28;20026;-92
2020/12/25 12:45:33;;;;;;;6.10;2.38;;;13.30;63.50;;;;;;5016170;28;20025;-91
2020/12/25 12:47:59;;;;;;;3.85;1.55;;;13.60;62.40;;;;;;5002158;28;20510;-92